Vliegveldwaarnemingen Nederland - (AUTO) METAR

Luchtvaartmeteorologische informatie voor operationeel gebruik en vluchtvoorbereiding is beschikbaar op www.luchtvaartmeteo.nl.

ZCZC
SA161425 EHKD     DE KOOY/DE KOOY   NLD   1 m.
METAR EHKD 161425Z AUTO 27011KT 220V300 9999 FEW017 19/14 Q1016
BLU NOSIG=

ZCZC
SA161425 EHFD     F3-FB-1   NLD   50 m.
METAR EHFD 161425Z AUTO 30019KT 9999 FEW010/// SCT018/// 16/13 Q1014=

ZCZC
SA161425 EHAM     AMSTERDAM/SCHIPHOL   NLD   -3 m.
METAR EHAM 161425Z 28011KT 250V320 9999 FEW025 20/14 Q1016 NOSIG=

ZCZC
SA161425 EHVL     VLIELAND   NLD   10 m.
METAR EHVL 161425Z AUTO 28014KT 9999 SCT015 18/14 Q1016 WHT=

ZCZC
SA161425 EHJR     K13-A   NLD   37 m.
METAR EHJR 161425Z AUTO 28012KT //// // ///////// 17/14 Q//// RE//
W18/H11=

ZCZC
SA161425 EHLE     LELYSTAD/LELYSTAD   NLD   -3 m.
METAR EHLE 161425Z AUTO 29011KT 250V330 9999 FEW025 19/13 Q1016
NOSIG=

ZCZC
SA161425 EHLW     LEEUWARDEN/LEEUWARDEN   NLD   1 m.
METAR EHLW 161425Z AUTO 29013KT 250V320 9999 SCT019 BKN023 OVC031
18/14 Q1016 WHT=

ZCZC
SA161425 EHDL     ARNHEM/DEELEN   NLD   48 m.
METAR EHDL 161425Z AUTO 30009KT 260V360 9999 FEW031 SCT045 19/12
Q1016 BLU=

ZCZC
SA161425 EHGG     GRONINGEN/EELDE   NLD   5 m.
METAR EHGG 161425Z AUTO 31013KT 270V350 9999 FEW027 BKN040 19/12
Q1015 NOSIG=

ZCZC
SA161425 EHSC     LICHTEILAND GOEREE   NLD   22 m.
METAR EHSC 161425Z AUTO 28015KT 9999 ///////// 18/14 Q1017 W19/H8=

ZCZC
SA161425 EHSA     EURO PLATFORM   NLD   19 m.
METAR EHSA 161425Z AUTO 25014KT 9999 ///////// 18/14 Q1017 W18/H8=

ZCZC
SA161425 EHWO     WOENSDRECHT/WOENSDRECHT   NLD   19 m.
METAR EHWO 161425Z AUTO 29009KT 240V350 9999 NCD 21/11 Q1017 BLU=

ZCZC
SA161425 EHRD     ROTTERDAM/THE HAGUE AIRPORT   NLD   -5 m.
METAR EHRD 161425Z AUTO 29011KT 250V320 9999 NCD 20/13 Q1017 NOSIG=

ZCZC
SA161425 EHGR     GILZE-RIJEN/GILZE-RIJEN   NLD   14 m.
METAR EHGR 161425Z AUTO 29010KT 250V330 9999 FEW040 SCT059 22/13
Q1017
BLU NOSIG=

ZCZC
SA161425 EHEH     EINDHOVEN/EINDHOVEN   NLD   22 m.
METAR EHEH 161425Z AUTO 29007KT 260V040 9999 FEW036 SCT042 BKN051
20/12 Q1017
BLU NOSIG=

ZCZC
SA161425 EHVK     VOLKEL/VOLKEL   NLD   21 m.
METAR EHVK 161425Z AUTO 30004KT 260V350 9999 BKN058 20/12 Q1017
BLU NOSIG=

ZCZC
SA161425 EHBK     MAASTRICHT/MAASTRICHT-AACHEN   NLD   114 m.
METAR EHBK 161425Z AUTO 35005KT 310V030 9999 BKN036 OVC041 21/12
Q1017 NOSIG=

ZCZC
SA161425 EHFZ     F16-A   NLD   43 m.
METAR EHFZ 161425Z NIL=

ZCZC
SA161425 EHKV     K14-FA-1C   NLD   41 m.
METAR EHKV 161425Z AUTO 29011KT 260V360 9999 FEW009 SCT011 18/14
Q1016=

ZCZC
SA161425 EHMG     L9-FF-1   NLD   44 m.
METAR EHMG 161425Z AUTO 27014KT 9999 FEW012 17/13 Q1016=

ZCZC
SA161425 EHMA     AWG-1   NLD   40 m.
METAR EHMA 161425Z AUTO 29021KT 9999 FEW017 SCT021 17/13 Q1015=

ZCZC
SA161425 EHDV     D15-FA-1   NLD   42 m.
METAR EHDV 161425Z AUTO 28010KT 9999 FEW009/// 17/14 Q1015=

ZCZC
SA161425 EHAK     A12-CPP   NLD   48 m.
METAR EHAK 161425Z AUTO 33014KT 9999 FEW009/// 16/13 Q1015=

ZCZC
SA161425 EHQE     HOORN-A   NLD   50 m.
METAR EHQE 161425Z AUTO /////KT 9000 FEW009 18/14 Q1016=

ZCZC
SA161425 EHJA     J6-A   NLD   45 m.
METAR EHJA 161425Z AUTO 19008KT 6000 NSC 16/15 Q1015=

ZCZC
SA161425 EHPG     P11-B   NLD   41 m.
METAR EHPG 161425Z AUTO 27011KT 190V340 9999 NCD 18/14 Q1017=

ZCZC
SA161425 EHHW     BUITENGAATS/BG-OHVS2      42 m.
METAR EHHW 161425Z AUTO 32019KT 9999 FEW014/// SCT022/// BKN027///
17/13 Q1014=

ZCZC
SA161425 EHFS     VLISSINGEN AWS   NLD   8 m.
METAR EHFS 161425Z AUTO 26010KT 230V300 9999 NCD 20/15 Q1017=

ZCZC
SA161425 EHSG     BSA   NLD   43 m.
METAR EHSG 161425Z AUTO 28010KT //// // NCD 18/13 Q1017 RE//=

16/09/2021 16.45 uur LT